createdAt,value
2022-08-09T00:00:44.639Z,89013.31
2022-08-09T00:04:05.506Z,89013.34
2022-08-09T00:06:36.291Z,89011.97
2022-08-09T00:09:20.932Z,89010.94
2022-08-09T00:12:06.136Z,89012.75
2022-08-09T00:14:51.005Z,89016.34
2022-08-09T00:18:05.273Z,89014.97
2022-08-09T00:20:49.955Z,89014.97
2022-08-09T00:23:57.207Z,89012.66
2022-08-09T00:26:40.239Z,89011.47
2022-08-09T00:29:39.947Z,89014.81
2022-08-09T00:32:30.385Z,89005.13
2022-08-09T00:35:15.064Z,89002.13
2022-08-09T00:38:00.374Z,89003.81
2022-08-09T00:40:52.822Z,89006.09
2022-08-09T00:44:15.131Z,89002.66
2022-08-09T00:46:57.476Z,89008.91
2022-08-09T00:49:54.540Z,89004.25
2022-08-09T00:52:41.517Z,89011.41
2022-08-09T00:56:03.069Z,89013.81
2022-08-09T00:58:31.098Z,89013.81
2022-08-09T01:01:16.892Z,89014.25
2022-08-09T01:04:01.458Z,89014.75
2022-08-09T01:06:54.512Z,89014.44
2022-08-09T01:09:40.698Z,89016.22
2022-08-09T01:12:25.654Z,89013.31
2022-08-09T01:15:16.819Z,89014.91
2022-08-09T01:18:02.477Z,89017.84
2022-08-09T01:20:47.418Z,89011.78
2022-08-09T01:24:03.432Z,89015.50
2022-08-09T01:26:36.962Z,89012.25
2022-08-09T01:29:21.802Z,89019.97
2022-08-09T01:32:32.281Z,89011.66
2022-08-09T01:35:37.914Z,89015.03
2022-08-09T01:38:23.471Z,89022.91
2022-08-09T01:41:09.436Z,89019.66
2022-08-09T01:43:54.301Z,89025.63
2022-08-09T01:46:39.535Z,89025.53
2022-08-09T01:49:24.498Z,89029.03
2022-08-09T01:52:09.646Z,89020.75
2022-08-09T01:54:54.480Z,89025.50
2022-08-09T01:57:40.087Z,89027.47
2022-08-09T02:00:35.868Z,89031.00
2022-08-09T02:03:21.298Z,89030.28
2022-08-09T02:06:07.219Z,89033.72
2022-08-09T02:08:58.889Z,89026.72
2022-08-09T02:11:44.673Z,89025.59
2022-08-09T02:14:30.569Z,89028.50
2022-08-09T02:17:59.115Z,89024.88
2022-08-09T02:20:26.458Z,89027.03
2022-08-09T02:23:17.276Z,89024.63
2022-08-09T02:26:02.459Z,89023.47
2022-08-09T02:28:47.263Z,89025.69
2022-08-09T02:31:34.273Z,89024.22
2022-08-09T02:34:38.600Z,89025.75
2022-08-09T02:37:31.843Z,89020.50
2022-08-09T02:40:24.775Z,89019.22
2022-08-09T02:43:12.191Z,89023.16
2022-08-09T02:45:58.132Z,89021.72
2022-08-09T02:48:45.993Z,89022.63
2022-08-09T02:51:33.038Z,89020.81
2022-08-09T02:54:25.316Z,89023.09
2022-08-09T02:57:14.191Z,89018.00
2022-08-09T03:00:21.564Z,89020.59
2022-08-09T03:03:11.302Z,89013.84
2022-08-09T03:05:56.583Z,89018.59
2022-08-09T03:08:41.423Z,89016.56
2022-08-09T03:12:06.597Z,89013.41
2022-08-09T03:14:31.663Z,89007.38
2022-08-09T03:17:26.792Z,89005.97
2022-08-09T03:20:12.718Z,88997.75
2022-08-09T03:22:58.220Z,89000.78
2022-08-09T03:25:58.306Z,89000.22
2022-08-09T03:28:48.053Z,88996.72
2022-08-09T03:31:42.447Z,89002.53
2022-08-09T03:34:44.539Z,89001.41
2022-08-09T03:37:57.134Z,89000.41
2022-08-09T03:40:38.484Z,89003.22
2022-08-09T03:43:31.824Z,89000.25
2022-08-09T03:46:20.641Z,89009.56
2022-08-09T03:49:12.394Z,88996.56
2022-08-09T03:52:03.651Z,88997.53
2022-08-09T03:54:49.327Z,89002.81
2022-08-09T03:57:44.723Z,88999.78
2022-08-09T04:00:41.110Z,89004.47
2022-08-09T04:03:46.155Z,89010.00
2022-08-09T04:06:31.719Z,89008.25
2022-08-09T04:09:41.780Z,89009.38
2022-08-09T04:12:30.467Z,89007.31
2022-08-09T04:15:40.591Z,89010.13
2022-08-09T04:18:22.261Z,89010.50
2022-08-09T04:21:09.899Z,89015.78
2022-08-09T04:23:57.543Z,89011.38
2022-08-09T04:26:43.152Z,89011.16
2022-08-09T04:29:30.056Z,89008.66
2022-08-09T04:32:15.060Z,89010.25
2022-08-09T04:35:01.322Z,89023.22
2022-08-09T04:37:46.843Z,89021.78
2022-08-09T04:40:36.544Z,89021.06
2022-08-09T04:43:21.919Z,89023.31
2022-08-09T04:46:10.253Z,89024.91
2022-08-09T04:49:15.109Z,89023.69
2022-08-09T04:52:00.303Z,89025.94
2022-08-09T04:54:45.585Z,89024.91
2022-08-09T04:57:58.482Z,89026.06
2022-08-09T05:00:35.492Z,89029.97
2022-08-09T05:03:40.362Z,89025.44
2022-08-09T05:06:27.824Z,89024.75
2022-08-09T05:09:13.869Z,89025.56
2022-08-09T05:12:00.252Z,89025.19
2022-08-09T05:14:44.926Z,89031.34
2022-08-09T05:18:39.731Z,89022.72
2022-08-09T05:20:35.219Z,89030.16
2022-08-09T05:23:53.965Z,89022.22
2022-08-09T05:26:35.280Z,89027.72
2022-08-09T05:29:31.559Z,89029.03
2022-08-09T05:32:20.625Z,89033.22
2022-08-09T05:35:08.277Z,89037.47
2022-08-09T05:37:53.966Z,89040.28
2022-08-09T05:40:38.917Z,89036.09
2022-08-09T05:43:23.591Z,89031.63
2022-08-09T05:46:08.408Z,89039.16
2022-08-09T05:48:59.035Z,89046.50
2022-08-09T05:51:46.435Z,89046.03
2022-08-09T05:54:31.837Z,89053.38
2022-08-09T05:57:17.584Z,89055.13
2022-08-09T06:00:04.146Z,89056.34
2022-08-09T06:02:54.549Z,89066.56
2022-08-09T06:05:54.537Z,89070.41
2022-08-09T06:08:52.688Z,89071.91
2022-08-09T06:11:41.215Z,89073.84
2022-08-09T06:14:41.918Z,89077.91
2022-08-09T06:17:26.540Z,89075.56
2022-08-09T06:20:23.892Z,89083.81
2022-08-09T06:23:11.976Z,89080.22
2022-08-09T06:26:00.710Z,89085.75
2022-08-09T06:28:46.629Z,89091.34
2022-08-09T06:31:40.156Z,89085.88
2022-08-09T06:34:36.905Z,89090.69
2022-08-09T06:37:21.513Z,89084.38
2022-08-09T06:40:21.668Z,89093.41
2022-08-09T06:43:10.724Z,89088.66
2022-08-09T06:46:06.311Z,89084.63
2022-08-09T06:48:59.697Z,89086.63
2022-08-09T06:51:45.887Z,89088.66
2022-08-09T06:54:30.803Z,89086.66
2022-08-09T06:57:15.638Z,89081.88
2022-08-09T07:00:48.870Z,89075.75
2022-08-09T07:03:05.907Z,89082.56
2022-08-09T07:05:53.684Z,89083.22
2022-08-09T07:08:49.732Z,89083.25
2022-08-09T07:11:52.014Z,89086.59
2022-08-09T07:14:38.129Z,89085.25
2022-08-09T07:17:23.354Z,89085.75
2022-08-09T07:20:08.201Z,89094.09
2022-08-09T07:22:53.525Z,89093.50
2022-08-09T07:25:42.828Z,89090.72
2022-08-09T07:28:28.649Z,89094.78
2022-08-09T07:31:13.236Z,89088.69
2022-08-09T07:33:59.963Z,89091.38
2022-08-09T07:36:47.208Z,89091.06
2022-08-09T07:39:41.270Z,89090.69
2022-08-09T07:42:32.715Z,89090.94
2022-08-09T07:45:23.637Z,89088.97
2022-08-09T07:48:29.464Z,89080.19
2022-08-09T07:52:05.749Z,89075.13
2022-08-09T07:54:28.132Z,89072.34
2022-08-09T07:57:15.011Z,89069.13
2022-08-09T08:00:03.682Z,89068.03
2022-08-09T08:02:49.332Z,89067.94
2022-08-09T08:05:39.264Z,89072.47
2022-08-09T08:09:02.633Z,89066.00
2022-08-09T08:12:09.829Z,89064.63
2022-08-09T08:14:51.779Z,89064.72
2022-08-09T08:17:55.110Z,89062.50
2022-08-09T08:20:43.007Z,89061.59
2022-08-09T08:23:28.005Z,89061.47
2022-08-09T08:26:13.200Z,89054.13
2022-08-09T08:28:59.875Z,89052.50
2022-08-09T08:32:02.301Z,89053.13
2022-08-09T08:34:48.943Z,89053.47
2022-08-09T08:37:41.483Z,89045.19
2022-08-09T08:40:42.035Z,89039.38
2022-08-09T08:43:27.169Z,89047.75
2022-08-09T08:46:32.080Z,89044.25
2022-08-09T08:49:19.165Z,89040.94
2022-08-09T08:52:04.334Z,89037.78
2022-08-09T08:54:55.757Z,89038.66
2022-08-09T08:57:40.419Z,89037.97
2022-08-09T09:00:29.829Z,89032.84
2022-08-09T09:03:22.640Z,89036.66
2022-08-09T09:06:09.951Z,89038.13
2022-08-09T09:08:59.574Z,89044.75
2022-08-09T09:11:44.963Z,89030.78
2022-08-09T09:14:34.716Z,89035.00
2022-08-09T09:17:21.004Z,89038.25
2022-08-09T09:20:06.205Z,89045.25
2022-08-09T09:22:51.016Z,89035.94
2022-08-09T09:26:04.878Z,89035.97
2022-08-09T09:29:04.543Z,89032.06
2022-08-09T09:32:03.448Z,89031.88
2022-08-09T09:34:50.272Z,89025.56
2022-08-09T09:37:35.003Z,89033.34
2022-08-09T09:40:21.334Z,89031.69
2022-08-09T09:43:06.752Z,89024.25
2022-08-09T09:46:39.477Z,89022.66
2022-08-09T09:48:56.514Z,89028.50
2022-08-09T09:51:41.844Z,89018.06
2022-08-09T09:54:26.537Z,89027.47
2022-08-09T09:58:02.922Z,89026.28
2022-08-09T10:00:19.858Z,89019.59
2022-08-09T10:03:09.205Z,89019.13
2022-08-09T10:06:04.090Z,89009.66
2022-08-09T10:08:55.083Z,89011.00
2022-08-09T10:12:00.132Z,89012.38
2022-08-09T10:14:48.396Z,89006.16
2022-08-09T10:17:50.470Z,89008.72
2022-08-09T10:20:44.800Z,89006.59
2022-08-09T10:23:30.606Z,89006.84
2022-08-09T10:26:16.817Z,89009.09
2022-08-09T10:29:21.243Z,88997.25
2022-08-09T10:32:38.178Z,89000.03
2022-08-09T10:35:14.588Z,88992.84
2022-08-09T10:37:59.385Z,88994.47
2022-08-09T10:40:46.063Z,88988.16
2022-08-09T10:43:46.763Z,88989.09
2022-08-09T10:46:43.564Z,88988.34
2022-08-09T10:49:46.909Z,88982.88
2022-08-09T10:52:36.535Z,88983.41
2022-08-09T10:55:22.816Z,88988.00
2022-08-09T10:58:08.699Z,88976.22
2022-08-09T11:03:02.961Z,88975.81
2022-08-09T11:04:03.629Z,88971.91
2022-08-09T11:06:51.100Z,88972.88
2022-08-09T11:09:41.085Z,88974.84
2022-08-09T11:12:29.777Z,88970.94
2022-08-09T11:15:18.897Z,88974.53
2022-08-09T11:18:04.200Z,88969.78
2022-08-09T11:20:49.740Z,88968.63
2022-08-09T11:23:35.004Z,88965.47
2022-08-09T11:26:20.816Z,88969.19
2022-08-09T11:29:06.186Z,88959.38
2022-08-09T11:31:55.031Z,88972.94
2022-08-09T11:34:40.297Z,88961.28
2022-08-09T11:37:25.138Z,88963.00
2022-08-09T11:40:12.840Z,88958.53
2022-08-09T11:43:02.505Z,88962.31
2022-08-09T11:45:47.395Z,88952.22
2022-08-09T11:48:33.588Z,88957.72
2022-08-09T11:52:56.898Z,88961.38
2022-08-09T11:54:29.701Z,88950.88
2022-08-09T11:57:28.243Z,88952.47
2022-08-09T12:00:27.409Z,88949.75
2022-08-09T12:03:50.470Z,88948.75
2022-08-09T12:06:18.158Z,88947.50
2022-08-09T12:09:19.484Z,88942.59
2022-08-09T12:12:12.203Z,88936.75
2022-08-09T12:15:08.479Z,88934.16
2022-08-09T12:17:54.032Z,88927.59
2022-08-09T12:20:41.881Z,88930.16
2022-08-09T12:23:47.435Z,88927.69
2022-08-09T12:26:31.565Z,88923.59
2022-08-09T12:29:32.685Z,88926.50
2022-08-09T12:32:21.766Z,88933.50
2022-08-09T12:35:12.574Z,88924.41
2022-08-09T12:38:01.750Z,88926.28
2022-08-09T12:40:46.553Z,88923.06
2022-08-09T12:44:05.313Z,88917.00
2022-08-09T12:46:41.871Z,88914.22
2022-08-09T12:49:28.037Z,88917.03
2022-08-09T12:52:14.962Z,88919.34
2022-08-09T12:56:10.787Z,88917.59
2022-08-09T12:58:04.571Z,88907.84
2022-08-09T13:00:56.508Z,88914.84
2022-08-09T13:03:57.089Z,88906.84
2022-08-09T13:06:44.350Z,88900.28
2022-08-09T13:09:30.711Z,88900.47
2022-08-09T13:12:15.835Z,88901.31
2022-08-09T13:15:04.715Z,88899.09
2022-08-09T13:18:05.749Z,88894.69
2022-08-09T13:22:33.859Z,88895.72
2022-08-09T13:24:42.310Z,88895.97
2022-08-09T13:27:06.056Z,88894.75
2022-08-09T13:30:03.795Z,88895.34
2022-08-09T13:32:58.401Z,88892.31
2022-08-09T13:36:24.806Z,88887.28
2022-08-09T13:38:54.954Z,88893.09
2022-08-09T13:41:58.265Z,88893.59
2022-08-09T13:44:45.688Z,88888.63
2022-08-09T13:47:44.014Z,88889.06
2022-08-09T13:50:35.393Z,88886.91
2022-08-09T13:53:20.630Z,88888.63
2022-08-09T13:56:23.423Z,88878.78
2022-08-09T13:59:10.677Z,88875.63
2022-08-09T14:02:01.493Z,88877.41
2022-08-09T14:04:49.623Z,88878.84
2022-08-09T14:07:45.310Z,88886.63
2022-08-09T14:10:46.120Z,88888.84
2022-08-09T14:14:24.514Z,88883.22
2022-08-09T14:16:40.341Z,88879.88
2022-08-09T14:19:25.628Z,88884.91
2022-08-09T14:22:15.262Z,88883.59
2022-08-09T14:25:00.082Z,88871.81
2022-08-09T14:27:57.150Z,88875.19
2022-08-09T14:30:43.934Z,88875.88
2022-08-09T14:33:31.762Z,88873.59
2022-08-09T14:36:23.103Z,88876.50
2022-08-09T14:39:10.412Z,88878.28
2022-08-09T14:41:55.537Z,88877.78
2022-08-09T14:44:48.863Z,88876.53
2022-08-09T14:47:49.701Z,88876.69
2022-08-09T14:50:42.678Z,88874.13
2022-08-09T14:53:30.519Z,88873.25
2022-08-09T14:56:16.748Z,88873.25
2022-08-09T14:59:01.625Z,88870.38
2022-08-09T15:01:46.348Z,88873.50
2022-08-09T15:04:32.169Z,88875.28
2022-08-09T15:07:17.998Z,88875.00
2022-08-09T15:10:10.914Z,88877.84
2022-08-09T15:12:59.076Z,88873.00
2022-08-09T15:15:46.418Z,88870.94
2022-08-09T15:18:31.149Z,88879.88
2022-08-09T15:21:57.801Z,88874.69
2022-08-09T15:24:26.490Z,88876.78
2022-08-09T15:27:12.727Z,88885.94
2022-08-09T15:30:56.076Z,88882.84
2022-08-09T15:33:07.505Z,88881.34
2022-08-09T15:36:01.632Z,88876.59
2022-08-09T15:38:47.326Z,88879.28
2022-08-09T15:41:32.682Z,88880.22
2022-08-09T15:44:19.660Z,88874.31
2022-08-09T15:47:13.956Z,88881.75
2022-08-09T15:50:03.500Z,88875.75
2022-08-09T15:52:55.087Z,88865.59
2022-08-09T15:56:04.744Z,88869.53
2022-08-09T15:58:56.524Z,88880.69
2022-08-09T16:01:41.757Z,88877.03
2022-08-09T16:04:27.939Z,88870.75
2022-08-09T16:07:13.557Z,88873.06
2022-08-09T16:10:04.488Z,88879.47
2022-08-09T16:12:50.718Z,88868.25
2022-08-09T16:16:11.421Z,88876.81
2022-08-09T16:18:44.793Z,88875.72
2022-08-09T16:21:31.593Z,88878.25
2022-08-09T16:24:33.120Z,88876.97
2022-08-09T16:27:18.975Z,88883.63
2022-08-09T16:30:06.298Z,88881.47
2022-08-09T16:32:54.315Z,88878.03
2022-08-09T16:35:57.442Z,88880.50
2022-08-09T16:38:44.425Z,88872.94
2022-08-09T16:42:02.857Z,88873.53
2022-08-09T16:44:41.714Z,88874.69
2022-08-09T16:48:43.280Z,88874.47
2022-08-09T16:50:34.117Z,88881.06
2022-08-09T16:53:19.861Z,88885.13
2022-08-09T16:56:10.175Z,88881.38
2022-08-09T16:58:55.907Z,88880.06
2022-08-09T17:01:45.578Z,88879.38
2022-08-09T17:04:36.156Z,88881.31
2022-08-09T17:08:46.218Z,88881.31
2022-08-09T17:10:26.196Z,88884.03
2022-08-09T17:13:10.971Z,88882.53
2022-08-09T17:15:59.840Z,88882.34
2022-08-09T17:18:47.320Z,88880.16
2022-08-09T17:21:32.996Z,88876.44
2022-08-09T17:24:26.967Z,88877.06
2022-08-09T17:27:15.774Z,88881.38
2022-08-09T17:30:05.044Z,88878.56
2022-08-09T17:32:51.736Z,88890.34
2022-08-09T17:35:41.346Z,88890.25
2022-08-09T17:38:32.041Z,88887.50
2022-08-09T17:41:21.994Z,88888.63
2022-08-09T17:44:42.472Z,88894.59
2022-08-09T17:47:28.531Z,88898.56
2022-08-09T17:50:17.328Z,88899.09
2022-08-09T17:53:22.271Z,88895.13
2022-08-09T17:56:09.379Z,88904.97
2022-08-09T17:58:54.407Z,88903.34
2022-08-09T18:01:58.181Z,88895.06
2022-08-09T18:04:44.234Z,88894.66
2022-08-09T18:07:30.453Z,88904.28
2022-08-09T18:10:19.206Z,88886.56
2022-08-09T18:13:39.088Z,88899.03
2022-08-09T18:16:09.391Z,88900.00
2022-08-09T18:18:54.341Z,88908.03
2022-08-09T18:21:41.242Z,88902.06
2022-08-09T18:24:27.539Z,88907.16
2022-08-09T18:27:13.670Z,88907.69
2022-08-09T18:30:40.268Z,88909.66
2022-08-09T18:33:13.453Z,88914.28
2022-08-09T18:36:00.781Z,88922.06
2022-08-09T18:38:45.800Z,88925.06
2022-08-09T18:41:34.255Z,88922.69
2022-08-09T18:44:19.983Z,88923.38
2022-08-09T18:47:15.926Z,88929.41
2022-08-09T18:50:03.411Z,88932.19
2022-08-09T18:52:51.196Z,88938.66
2022-08-09T18:55:56.123Z,88943.09
2022-08-09T18:58:40.845Z,88945.50
2022-08-09T19:01:26.167Z,88942.63
2022-08-09T19:04:11.310Z,88956.19
2022-08-09T19:06:56.096Z,88958.56
2022-08-09T19:10:15.778Z,88966.88
2022-08-09T19:12:50.591Z,88957.09
2022-08-09T19:15:45.040Z,88975.38
2022-08-09T19:18:37.623Z,88973.44
2022-08-09T19:21:51.872Z,88972.94
2022-08-09T19:24:33.117Z,88969.56
2022-08-09T19:27:25.896Z,88972.03
2022-08-09T19:30:22.199Z,88970.84
2022-08-09T19:33:19.710Z,88973.69
2022-08-09T19:36:11.684Z,88978.34
2022-08-09T19:38:56.986Z,88974.50
2022-08-09T19:41:42.284Z,88978.56
2022-08-09T19:44:27.704Z,88983.53
2022-08-09T19:47:12.398Z,88986.56
2022-08-09T19:50:08.233Z,88986.16
2022-08-09T19:53:04.413Z,88985.63
2022-08-09T19:56:01.888Z,88985.63
2022-08-09T19:59:06.197Z,88984.63
2022-08-09T20:02:07.516Z,88989.81
2022-08-09T20:04:58.319Z,88994.84
2022-08-09T20:07:56.852Z,88999.38
2022-08-09T20:10:45.393Z,88991.75
2022-08-09T20:13:30.642Z,88991.38
2022-08-09T20:16:35.697Z,88995.59
2022-08-09T20:19:47.735Z,88996.41
2022-08-09T20:22:32.118Z,88998.00
2022-08-09T20:25:22.846Z,88997.97
2022-08-09T20:28:07.950Z,89007.25
2022-08-09T20:30:57.756Z,88998.56
2022-08-09T20:33:44.682Z,89005.44
2022-08-09T20:36:29.813Z,89007.16
2022-08-09T20:39:28.365Z,89015.84
2022-08-09T20:42:21.499Z,89010.13
2022-08-09T20:48:20.940Z,89009.66
2022-08-09T20:51:06.629Z,89011.47
2022-08-09T20:53:51.420Z,89021.88
2022-08-09T20:56:36.301Z,89012.44
2022-08-09T20:59:50.297Z,89016.53
2022-08-09T21:02:26.526Z,89025.53
2022-08-09T21:05:56.504Z,89020.50
2022-08-09T21:08:17.019Z,89017.91
2022-08-09T21:11:07.143Z,89017.50
2022-08-09T21:14:10.040Z,89007.06
2022-08-09T21:16:54.799Z,89005.69
2022-08-09T21:20:17.249Z,89003.16
2022-08-09T21:22:46.788Z,89006.22
2022-08-09T21:25:37.997Z,89007.97
2022-08-09T21:28:34.453Z,89005.19
2022-08-09T21:31:20.999Z,89014.13
2022-08-09T21:34:06.271Z,89007.28
2022-08-09T21:36:55.664Z,89011.19
2022-08-09T21:39:42.035Z,89010.88
2022-08-09T21:42:28.390Z,89016.09
2022-08-09T21:45:15.840Z,89015.09
2022-08-09T21:48:03.242Z,89011.44
2022-08-09T21:50:51.344Z,89014.63
2022-08-09T21:53:40.980Z,89009.72
2022-08-09T21:56:43.613Z,89011.72
2022-08-09T21:59:42.936Z,89015.06
2022-08-09T22:02:36.170Z,89012.75
2022-08-09T22:05:22.473Z,89013.38
2022-08-09T22:08:13.781Z,89017.75
2022-08-09T22:11:49.947Z,89019.94
2022-08-09T22:14:04.089Z,89026.69
2022-08-09T22:16:55.772Z,89030.38
2022-08-09T22:19:58.379Z,89032.34
2022-08-09T22:22:44.701Z,89038.97
2022-08-09T22:26:06.208Z,89035.13
2022-08-09T22:28:47.156Z,89029.31
2022-08-09T22:31:50.215Z,89043.06
2022-08-09T22:34:42.095Z,89045.00
2022-08-09T22:37:26.913Z,89046.91
2022-08-09T22:40:19.886Z,89048.16
2022-08-09T22:43:16.091Z,89052.59
2022-08-09T22:48:10.522Z,89045.94
2022-08-09T22:49:14.998Z,89050.94
2022-08-09T22:51:59.691Z,89046.66
2022-08-09T22:54:46.855Z,89047.81
2022-08-09T22:57:35.596Z,89044.00
2022-08-09T23:00:21.481Z,89045.53
2022-08-09T23:03:14.329Z,89050.25
2022-08-09T23:06:30.138Z,89049.66
2022-08-09T23:09:20.789Z,89054.53
2022-08-09T23:12:05.585Z,89058.03
2022-08-09T23:14:54.012Z,89065.50
2022-08-09T23:17:39.278Z,89072.91
2022-08-09T23:20:24.113Z,89077.75
2022-08-09T23:23:08.730Z,89078.22
2022-08-09T23:25:53.613Z,89078.22
2022-08-09T23:28:38.397Z,89086.91
2022-08-09T23:31:22.881Z,89084.47
2022-08-09T23:34:07.588Z,89083.78
2022-08-09T23:36:52.277Z,89085.66
2022-08-09T23:39:37.055Z,89078.69
2022-08-09T23:42:22.309Z,89072.78
2022-08-09T23:45:07.295Z,89076.81
2022-08-09T23:47:53.933Z,89077.03
2022-08-09T23:50:38.615Z,89069.59
2022-08-09T23:53:23.371Z,89077.72
2022-08-09T23:56:12.651Z,89066.25
2022-08-09T23:58:57.752Z,89066.50
